Terminal Aerodrome Forecast
Issued by NWS Jackson, KY

Home | Current Version | Previous Version | Text Only | Print | Product List | Glossary On
Versions: 1 2 3 4 5 6 7 8 9 10 11 12 13
454
FTUS43 KJKL 240939 AAA
TAFLOZ
TAF AMD
KLOZ 240939Z 2410/2506 00000KT 5SM BR SCT002
     FM241300 VRB03KT P6SM SKC=

USA.gov is the U.S. government's official web portal to all federal, state and local government web resources and services.